createdAt,value
2017-09-29T00:00:17.752Z,12.30
2017-09-29T00:02:46.211Z,12.30
2017-09-29T00:05:14.637Z,12.20
2017-09-29T00:07:43.074Z,12.20
2017-09-29T00:10:11.511Z,12.20
2017-09-29T00:12:40.705Z,12.20
2017-09-29T00:15:09.891Z,12.20
2017-09-29T00:17:39.087Z,12.30
2017-09-29T00:20:07.503Z,12.20
2017-09-29T00:22:35.914Z,12.30
2017-09-29T00:25:04.414Z,12.30
2017-09-29T00:27:32.848Z,12.20
2017-09-29T00:30:01.274Z,12.20
2017-09-29T00:32:29.712Z,12.20
2017-09-29T00:34:57.795Z,12.20
2017-09-29T00:37:26.216Z,12.30
2017-09-29T00:39:55.076Z,12.20
2017-09-29T00:42:23.500Z,12.20
2017-09-29T00:44:51.921Z,12.20
2017-09-29T00:47:19.767Z,12.30
2017-09-29T00:49:48.191Z,12.30
2017-09-29T00:52:17.027Z,12.20
2017-09-29T00:54:44.776Z,12.10
2017-09-29T00:57:13.271Z,12.10
2017-09-29T00:59:41.706Z,12.10
2017-09-29T01:02:10.134Z,12.00
2017-09-29T01:04:38.362Z,11.90
2017-09-29T01:07:06.448Z,11.90
2017-09-29T01:09:35.676Z,11.90
2017-09-29T01:12:04.090Z,11.90
2017-09-29T01:14:32.576Z,11.90
2017-09-29T01:17:00.387Z,11.90
2017-09-29T01:19:28.128Z,11.80
2017-09-29T01:21:56.611Z,11.70
2017-09-29T01:24:25.471Z,11.70
2017-09-29T01:26:55.052Z,11.60
2017-09-29T01:29:22.797Z,11.60
2017-09-29T01:31:50.895Z,11.60
2017-09-29T01:34:18.970Z,11.60
2017-09-29T01:36:46.706Z,11.50
2017-09-29T01:39:14.446Z,11.50
2017-09-29T01:41:42.519Z,11.40
2017-09-29T01:44:10.607Z,11.40
2017-09-29T01:46:38.347Z,11.40
2017-09-29T01:49:07.179Z,11.40
2017-09-29T01:51:35.247Z,11.40
2017-09-29T01:54:02.999Z,11.30
2017-09-29T01:56:30.722Z,11.30
2017-09-29T01:58:59.202Z,11.20
2017-09-29T02:01:28.073Z,11.20
2017-09-29T02:03:55.804Z,11.20
2017-09-29T02:06:23.526Z,11.20
2017-09-29T02:08:51.276Z,11.30
2017-09-29T02:11:19.755Z,11.30
2017-09-29T02:13:48.270Z,11.20
2017-09-29T02:16:16.031Z,11.20
2017-09-29T02:18:43.755Z,11.20
2017-09-29T02:21:12.241Z,11.10
2017-09-29T02:23:40.739Z,11.10
2017-09-29T02:26:08.463Z,11.10
2017-09-29T02:28:36.186Z,11.10
2017-09-29T02:31:03.943Z,11.10
2017-09-29T02:33:31.711Z,11.00
2017-09-29T02:35:59.430Z,11.00
2017-09-29T02:38:27.938Z,11.00
2017-09-29T02:40:55.668Z,10.90
2017-09-29T02:43:24.167Z,11.00
2017-09-29T02:45:52.671Z,11.10
2017-09-29T02:48:20.386Z,11.00
2017-09-29T02:50:48.114Z,11.00
2017-09-29T02:53:15.957Z,11.00
2017-09-29T02:55:43.689Z,10.90
2017-09-29T02:58:16.691Z,10.80
2017-09-29T03:00:48.027Z,10.80
2017-09-29T03:03:21.972Z,10.80
2017-09-29T03:05:58.971Z,10.80
2017-09-29T03:08:26.699Z,10.80
2017-09-29T03:10:54.415Z,10.70
2017-09-29T03:13:24.367Z,10.70
2017-09-29T03:15:52.782Z,10.70
2017-09-29T03:18:20.866Z,10.70
2017-09-29T03:20:49.295Z,10.60
2017-09-29T03:23:17.702Z,10.60
2017-09-29T03:25:46.112Z,10.60
2017-09-29T03:28:14.198Z,10.60
2017-09-29T03:30:43.380Z,10.60
2017-09-29T03:33:11.446Z,10.50
2017-09-29T03:35:39.880Z,10.50
2017-09-29T03:38:08.292Z,10.40
2017-09-29T03:40:36.026Z,10.40
2017-09-29T03:43:04.472Z,10.30
2017-09-29T03:45:33.691Z,10.30
2017-09-29T03:48:02.112Z,10.30
2017-09-29T03:50:33.395Z,10.30
2017-09-29T03:53:10.379Z,10.20
2017-09-29T03:55:43.909Z,10.20
2017-09-29T03:58:13.788Z,10.20
2017-09-29T04:00:42.282Z,10.10
2017-09-29T04:03:10.718Z,10.10
2017-09-29T04:05:39.132Z,10.10
2017-09-29T04:08:07.003Z,10.10
2017-09-29T04:10:35.440Z,10.10
2017-09-29T04:13:03.503Z,10.10
2017-09-29T04:15:31.249Z,10.10
2017-09-29T04:17:59.682Z,10.10
2017-09-29T04:20:28.864Z,10.20
2017-09-29T04:22:58.407Z,10.10
2017-09-29T04:25:26.870Z,10.10
2017-09-29T04:27:55.517Z,10.00
2017-09-29T04:30:23.947Z,10.00
2017-09-29T04:32:52.428Z,10.00
2017-09-29T04:35:20.872Z,10.00
2017-09-29T04:37:50.055Z,9.90
2017-09-29T04:40:19.262Z,9.90
2017-09-29T04:42:48.446Z,9.90
2017-09-29T04:45:16.851Z,9.90
2017-09-29T04:47:46.047Z,9.90
2017-09-29T04:50:15.223Z,9.90
2017-09-29T04:52:43.661Z,9.80
2017-09-29T04:55:12.082Z,9.80
2017-09-29T04:57:40.522Z,9.80
2017-09-29T05:00:08.937Z,9.80
2017-09-29T05:02:37.365Z,9.80
2017-09-29T05:05:05.770Z,9.80
2017-09-29T05:07:34.176Z,9.80
2017-09-29T05:10:02.404Z,9.80
2017-09-29T05:12:30.813Z,9.80
2017-09-29T05:14:59.223Z,9.80
2017-09-29T05:17:28.254Z,9.80
2017-09-29T05:19:56.675Z,9.80
2017-09-29T05:22:24.745Z,9.90
2017-09-29T05:24:53.179Z,9.90
2017-09-29T05:27:21.626Z,9.90
2017-09-29T05:29:50.265Z,10.00
2017-09-29T05:32:18.711Z,10.20
2017-09-29T05:34:47.127Z,10.10
2017-09-29T05:37:15.538Z,10.30
2017-09-29T05:39:44.731Z,10.30
2017-09-29T05:42:13.143Z,10.30
2017-09-29T05:44:41.561Z,10.40
2017-09-29T05:47:09.991Z,10.50
2017-09-29T05:49:38.585Z,10.60
2017-09-29T05:52:07.027Z,10.70
2017-09-29T05:54:36.215Z,10.80
2017-09-29T05:57:04.625Z,10.80
2017-09-29T05:59:33.039Z,10.80
2017-09-29T06:02:01.459Z,10.80
2017-09-29T06:04:30.627Z,10.90
2017-09-29T06:06:59.039Z,10.90
2017-09-29T06:09:28.227Z,11.00
2017-09-29T06:11:57.411Z,11.00
2017-09-29T06:14:25.827Z,11.00
2017-09-29T06:16:54.255Z,11.10
2017-09-29T06:19:22.657Z,11.10
2017-09-29T06:21:51.839Z,11.30
2017-09-29T06:24:20.271Z,11.30
2017-09-29T06:26:48.683Z,11.40
2017-09-29T06:29:17.103Z,11.60
2017-09-29T06:31:46.303Z,12.00
2017-09-29T06:34:16.059Z,12.20
2017-09-29T06:36:44.470Z,12.20
2017-09-29T06:39:12.927Z,12.40
2017-09-29T06:41:41.350Z,12.80
2017-09-29T06:44:09.764Z,13.40
2017-09-29T06:46:38.253Z,14.20
2017-09-29T06:49:06.681Z,14.70
2017-09-29T06:51:35.854Z,15.40
2017-09-29T06:54:04.275Z,15.40
2017-09-29T06:56:32.686Z,15.70
2017-09-29T06:59:01.671Z,16.10
2017-09-29T07:01:30.121Z,16.20
2017-09-29T07:03:58.602Z,16.00
2017-09-29T07:06:27.018Z,15.70
2017-09-29T07:08:55.446Z,15.80
2017-09-29T07:11:24.620Z,16.60
2017-09-29T07:13:53.040Z,16.60
2017-09-29T07:16:21.478Z,16.70
2017-09-29T07:18:49.899Z,16.20
2017-09-29T07:21:18.318Z,15.80
2017-09-29T07:23:46.750Z,15.90
2017-09-29T07:26:17.444Z,16.10
2017-09-29T07:28:50.838Z,16.40
2017-09-29T07:31:23.117Z,16.90
2017-09-29T07:33:52.538Z,17.30
2017-09-29T07:36:20.951Z,17.30
2017-09-29T07:38:49.026Z,17.60
2017-09-29T07:41:17.462Z,17.80
2017-09-29T07:43:45.874Z,18.10
2017-09-29T07:46:13.947Z,18.20
2017-09-29T07:48:42.380Z,18.30
2017-09-29T07:51:11.232Z,18.30
2017-09-29T07:53:39.641Z,18.30
2017-09-29T07:56:08.493Z,18.30
2017-09-29T07:58:36.955Z,18.30
2017-09-29T08:01:05.023Z,18.90
2017-09-29T08:03:33.455Z,19.20
2017-09-29T08:06:02.631Z,20.10
2017-09-29T08:08:31.038Z,20.10
2017-09-29T08:11:00.235Z,21.40
2017-09-29T08:13:29.431Z,20.90
2017-09-29T08:15:57.863Z,20.80
2017-09-29T08:18:26.296Z,20.50
2017-09-29T08:20:55.462Z,20.80
2017-09-29T08:23:23.866Z,20.80
2017-09-29T08:25:53.069Z,22.60
2017-09-29T08:28:21.904Z,23.60
2017-09-29T08:30:50.317Z,23.60
2017-09-29T08:33:19.514Z,22.90
2017-09-29T08:35:48.690Z,22.30
2017-09-29T08:38:17.124Z,22.30
2017-09-29T08:40:45.556Z,21.80
2017-09-29T08:43:13.975Z,21.10
2017-09-29T08:45:42.469Z,21.00
2017-09-29T08:48:10.904Z,20.70
2017-09-29T08:50:40.092Z,20.20
2017-09-29T08:53:09.274Z,20.00
2017-09-29T08:55:37.731Z,20.00
2017-09-29T08:58:06.144Z,19.90
2017-09-29T09:00:35.329Z,20.50
2017-09-29T09:03:03.755Z,20.40
2017-09-29T09:05:32.279Z,21.00
2017-09-29T09:08:00.679Z,21.40
2017-09-29T09:10:29.107Z,21.90
2017-09-29T09:12:57.522Z,22.70
2017-09-29T09:15:25.927Z,23.30
2017-09-29T09:17:55.124Z,23.10
2017-09-29T09:20:24.311Z,22.60
2017-09-29T09:22:52.719Z,22.50
2017-09-29T09:25:21.140Z,23.00
2017-09-29T09:27:49.559Z,23.30
2017-09-29T09:30:18.734Z,24.00
2017-09-29T09:32:47.164Z,24.00
2017-09-29T09:35:15.570Z,24.90
2017-09-29T09:37:43.979Z,25.30
2017-09-29T09:40:12.448Z,25.20
2017-09-29T09:42:41.638Z,24.00
2017-09-29T09:45:09.855Z,24.00
2017-09-29T09:47:38.292Z,24.40
2017-09-29T09:50:08.222Z,24.40
2017-09-29T09:52:36.631Z,24.40
2017-09-29T09:55:05.066Z,24.80
2017-09-29T09:57:33.601Z,25.60
2017-09-29T10:00:02.089Z,26.50
2017-09-29T10:02:30.534Z,27.50
2017-09-29T10:04:59.707Z,29.20
2017-09-29T10:07:28.118Z,29.20
2017-09-29T10:09:57.236Z,29.10
2017-09-29T10:12:25.658Z,29.00
2017-09-29T10:14:54.062Z,29.20
2017-09-29T10:17:23.258Z,28.90
2017-09-29T10:19:52.445Z,28.60
2017-09-29T10:22:21.626Z,27.80
2017-09-29T10:24:50.162Z,27.70
2017-09-29T10:27:18.578Z,27.40
2017-09-29T10:29:46.996Z,27.30
2017-09-29T10:32:15.436Z,27.10
2017-09-29T10:34:43.860Z,26.90
2017-09-29T10:37:12.285Z,26.70
2017-09-29T10:39:40.721Z,26.40
2017-09-29T10:42:09.132Z,26.30
2017-09-29T10:44:37.547Z,25.90
2017-09-29T10:47:05.984Z,25.70
2017-09-29T10:49:34.403Z,25.40
2017-09-29T10:52:02.822Z,25.10
2017-09-29T10:54:31.243Z,25.20
2017-09-29T10:56:59.651Z,25.90
2017-09-29T10:59:28.927Z,26.20
2017-09-29T11:01:57.363Z,26.20
2017-09-29T11:04:25.776Z,26.10
2017-09-29T11:06:54.191Z,25.80
2017-09-29T11:09:23.383Z,25.30
2017-09-29T11:11:52.546Z,25.50
2017-09-29T11:14:20.968Z,25.40
2017-09-29T11:16:49.386Z,25.60
2017-09-29T11:19:17.794Z,25.90
2017-09-29T11:21:46.196Z,25.90
2017-09-29T11:24:15.877Z,25.10
2017-09-29T11:26:44.284Z,25.10
2017-09-29T11:29:13.456Z,24.50
2017-09-29T11:31:41.882Z,24.50
2017-09-29T11:34:10.291Z,24.20
2017-09-29T11:36:38.726Z,23.90
2017-09-29T11:39:07.152Z,23.80
2017-09-29T11:41:35.579Z,23.80
2017-09-29T11:44:03.983Z,23.70
2017-09-29T11:46:32.414Z,23.90
2017-09-29T11:49:01.601Z,24.50
2017-09-29T11:51:29.997Z,24.50
2017-09-29T11:53:59.185Z,24.70
2017-09-29T11:56:28.368Z,24.50
2017-09-29T11:58:56.784Z,24.50
2017-09-29T12:01:25.561Z,24.20
2017-09-29T12:03:54.728Z,23.70
2017-09-29T12:06:23.897Z,23.50
2017-09-29T12:08:52.315Z,23.40
2017-09-29T12:11:20.731Z,23.40
2017-09-29T12:13:49.133Z,23.10
2017-09-29T12:16:18.353Z,23.10
2017-09-29T12:18:48.702Z,22.80
2017-09-29T12:21:17.882Z,22.70
2017-09-29T12:23:46.311Z,22.70
2017-09-29T12:26:14.731Z,22.60
2017-09-29T12:28:43.147Z,22.60
2017-09-29T12:31:11.616Z,22.60
2017-09-29T12:33:40.783Z,22.60
2017-09-29T12:36:09.221Z,22.50
2017-09-29T12:38:37.646Z,22.60
2017-09-29T12:41:06.158Z,22.60
2017-09-29T12:43:35.344Z,22.20
2017-09-29T12:46:04.574Z,22.10
2017-09-29T12:48:33.010Z,22.10
2017-09-29T12:51:01.570Z,22.00
2017-09-29T12:53:30.012Z,22.10
2017-09-29T12:55:58.430Z,22.00
2017-09-29T12:58:26.853Z,21.90
2017-09-29T13:00:55.283Z,21.80
2017-09-29T13:03:23.698Z,21.90
2017-09-29T13:05:52.866Z,21.90
2017-09-29T13:08:21.293Z,21.90
2017-09-29T13:10:49.713Z,21.80
2017-09-29T13:13:18.694Z,21.90
2017-09-29T13:15:46.935Z,22.10
2017-09-29T13:18:15.339Z,22.20
2017-09-29T13:20:43.745Z,22.30
2017-09-29T13:23:12.171Z,22.50
2017-09-29T13:25:40.687Z,22.50
2017-09-29T13:28:09.094Z,22.60
2017-09-29T13:30:37.523Z,22.50
2017-09-29T13:33:05.938Z,22.40
2017-09-29T13:35:34.343Z,22.40
2017-09-29T13:38:03.527Z,22.40
2017-09-29T13:40:31.943Z,22.40
2017-09-29T13:43:00.366Z,22.30
2017-09-29T13:45:28.962Z,22.10
2017-09-29T13:47:57.389Z,22.00
2017-09-29T13:50:25.802Z,21.90
2017-09-29T13:52:54.055Z,21.80
2017-09-29T13:55:22.466Z,21.50
2017-09-29T13:57:52.389Z,21.20
2017-09-29T14:00:20.811Z,21.20
2017-09-29T14:02:49.234Z,21.10
2017-09-29T14:05:17.645Z,21.20
2017-09-29T14:07:46.113Z,21.10
2017-09-29T14:10:14.551Z,21.20
2017-09-29T14:12:42.626Z,21.20
2017-09-29T14:15:11.049Z,21.20
2017-09-29T14:17:40.227Z,21.10
2017-09-29T14:20:10.151Z,21.10
2017-09-29T14:22:39.367Z,21.10
2017-09-29T14:25:07.782Z,21.10
2017-09-29T14:27:36.185Z,21.00
2017-09-29T14:30:04.621Z,20.90
2017-09-29T14:32:33.025Z,20.90
2017-09-29T14:35:01.435Z,20.80
2017-09-29T14:37:30.634Z,20.60
2017-09-29T14:39:59.812Z,20.60
2017-09-29T14:42:29.172Z,20.60
2017-09-29T14:44:57.631Z,20.50
2017-09-29T14:47:26.038Z,20.40
2017-09-29T14:49:54.454Z,20.30
2017-09-29T14:52:22.870Z,20.30
2017-09-29T14:54:51.284Z,20.30
2017-09-29T14:57:19.696Z,20.30
2017-09-29T14:59:48.119Z,20.30
2017-09-29T15:02:16.534Z,20.30
2017-09-29T15:04:44.957Z,20.30
2017-09-29T15:07:13.394Z,20.40
2017-09-29T15:09:41.805Z,20.40
2017-09-29T15:12:10.833Z,20.40
2017-09-29T15:14:39.267Z,20.40
2017-09-29T15:17:08.519Z,20.40
2017-09-29T15:19:37.805Z,20.20
2017-09-29T15:22:06.237Z,20.20
2017-09-29T15:24:34.655Z,20.20
2017-09-29T15:27:02.391Z,20.10
2017-09-29T15:29:31.589Z,19.90
2017-09-29T15:32:00.765Z,19.80
2017-09-29T15:34:29.186Z,19.70
2017-09-29T15:36:57.427Z,19.60
2017-09-29T15:39:26.610Z,19.60
2017-09-29T15:41:55.026Z,19.60
2017-09-29T15:44:23.451Z,19.50
2017-09-29T15:46:51.867Z,19.50
2017-09-29T15:49:21.044Z,19.30
2017-09-29T15:51:49.480Z,19.30
2017-09-29T15:54:17.896Z,19.30
2017-09-29T15:56:46.304Z,19.20
2017-09-29T15:59:15.494Z,19.10
2017-09-29T16:01:44.670Z,19.10
2017-09-29T16:04:13.094Z,19.10
2017-09-29T16:06:41.518Z,19.00
2017-09-29T16:09:09.930Z,19.00
2017-09-29T16:11:39.126Z,18.70
2017-09-29T16:14:08.142Z,18.60
2017-09-29T16:16:36.550Z,18.50
2017-09-29T16:19:04.974Z,18.40
2017-09-29T16:21:34.203Z,18.30
2017-09-29T16:24:02.628Z,18.30
2017-09-29T16:26:31.041Z,18.30
2017-09-29T16:28:59.744Z,18.20
2017-09-29T16:31:28.162Z,18.20
2017-09-29T16:33:56.614Z,18.20
2017-09-29T16:36:25.070Z,18.10
2017-09-29T16:38:53.491Z,18.00
2017-09-29T16:41:21.902Z,18.00
2017-09-29T16:43:51.101Z,17.90
2017-09-29T16:46:20.292Z,17.90
2017-09-29T16:48:49.518Z,17.80
2017-09-29T16:51:17.949Z,17.80
2017-09-29T16:53:46.368Z,17.80
2017-09-29T16:56:14.792Z,17.70
2017-09-29T16:58:43.243Z,17.60
2017-09-29T17:01:11.661Z,17.50
2017-09-29T17:03:40.069Z,17.40
2017-09-29T17:06:09.261Z,17.30
2017-09-29T17:08:38.447Z,17.30
2017-09-29T17:11:06.883Z,17.30
2017-09-29T17:13:35.315Z,17.30
2017-09-29T17:16:04.491Z,17.10
2017-09-29T17:18:32.906Z,17.10
2017-09-29T17:21:04.425Z,17.10
2017-09-29T17:23:32.829Z,17.00
2017-09-29T17:26:02.564Z,17.00
2017-09-29T17:28:30.991Z,17.00
2017-09-29T17:31:00.183Z,16.90
2017-09-29T17:33:28.609Z,16.90
2017-09-29T17:35:57.027Z,16.90
2017-09-29T17:38:25.456Z,16.90
2017-09-29T17:40:53.910Z,16.80
2017-09-29T17:43:22.320Z,16.70
2017-09-29T17:45:50.838Z,16.70
2017-09-29T17:48:19.266Z,16.70
2017-09-29T17:50:48.442Z,16.70
2017-09-29T17:53:16.852Z,16.70
2017-09-29T17:55:45.291Z,16.70
2017-09-29T17:58:13.741Z,16.70
2017-09-29T18:00:42.152Z,16.70
2017-09-29T18:03:10.787Z,16.70
2017-09-29T18:05:39.247Z,16.70
2017-09-29T18:08:07.726Z,16.70
2017-09-29T18:10:36.432Z,16.70
2017-09-29T18:13:04.905Z,16.70
2017-09-29T18:15:33.325Z,16.70
2017-09-29T18:18:01.770Z,16.70
2017-09-29T18:20:30.181Z,16.60
2017-09-29T18:22:58.589Z,16.70
2017-09-29T18:25:27.773Z,16.60
2017-09-29T18:27:56.962Z,16.50
2017-09-29T18:30:25.518Z,16.50
2017-09-29T18:32:54.002Z,16.50
2017-09-29T18:35:22.419Z,16.50
2017-09-29T18:37:51.639Z,16.40
2017-09-29T18:40:20.000Z,16.40
2017-09-29T18:42:49.202Z,16.40
2017-09-29T18:45:19.554Z,16.40
2017-09-29T18:47:47.991Z,16.40
2017-09-29T18:50:17.187Z,16.40
2017-09-29T18:52:45.604Z,16.40
2017-09-29T18:55:14.025Z,16.50
2017-09-29T18:57:42.435Z,16.50
2017-09-29T19:00:11.615Z,16.50
2017-09-29T19:02:39.874Z,16.50
2017-09-29T19:05:08.285Z,16.50
2017-09-29T19:07:37.457Z,16.50
2017-09-29T19:10:05.887Z,16.50
2017-09-29T19:12:34.330Z,16.50
2017-09-29T19:15:03.701Z,16.40
2017-09-29T19:17:31.939Z,16.40
2017-09-29T19:20:00.350Z,16.40
2017-09-29T19:22:28.766Z,16.40
2017-09-29T19:24:57.971Z,16.40
2017-09-29T19:27:27.142Z,16.40
2017-09-29T19:29:55.558Z,16.30
2017-09-29T19:32:24.000Z,16.40
2017-09-29T19:34:52.410Z,16.30
2017-09-29T19:37:20.820Z,16.30
2017-09-29T19:39:49.250Z,16.20
2017-09-29T19:42:18.430Z,16.10
2017-09-29T19:44:47.050Z,16.10
2017-09-29T19:47:15.481Z,16.00
2017-09-29T19:49:43.713Z,16.00
2017-09-29T19:52:12.129Z,15.90
2017-09-29T19:54:40.565Z,15.90
2017-09-29T19:57:09.001Z,15.80
2017-09-29T19:59:37.431Z,15.70
2017-09-29T20:02:08.323Z,15.60
2017-09-29T20:04:36.744Z,15.60
2017-09-29T20:07:05.165Z,15.60
2017-09-29T20:09:33.611Z,15.60
2017-09-29T20:12:02.785Z,15.50
2017-09-29T20:14:31.189Z,15.50
2017-09-29T20:16:59.615Z,15.50
2017-09-29T20:19:28.785Z,15.30
2017-09-29T20:21:57.194Z,15.30
2017-09-29T20:24:26.382Z,15.30
2017-09-29T20:26:54.785Z,15.30
2017-09-29T20:29:23.967Z,15.20
2017-09-29T20:31:53.155Z,15.30
2017-09-29T20:34:21.567Z,15.20
2017-09-29T20:36:49.981Z,15.30
2017-09-29T20:39:18.447Z,15.30
2017-09-29T20:41:46.863Z,15.30
2017-09-29T20:44:15.286Z,15.30
2017-09-29T20:46:43.718Z,15.20
2017-09-29T20:49:12.143Z,15.20
2017-09-29T20:51:40.839Z,15.20
2017-09-29T20:54:09.288Z,15.20
2017-09-29T20:56:38.466Z,15.10
2017-09-29T20:59:07.646Z,15.10
2017-09-29T21:01:36.081Z,15.10
2017-09-29T21:04:04.498Z,15.20
2017-09-29T21:06:32.920Z,15.20
2017-09-29T21:09:01.652Z,15.10
2017-09-29T21:11:30.888Z,15.10
2017-09-29T21:13:59.329Z,15.00
2017-09-29T21:16:27.766Z,15.10
2017-09-29T21:18:55.823Z,15.10
2017-09-29T21:21:25.011Z,15.10
2017-09-29T21:23:54.209Z,15.00
2017-09-29T21:26:23.441Z,15.00
2017-09-29T21:28:51.668Z,15.00
2017-09-29T21:31:19.911Z,15.00
2017-09-29T21:33:48.137Z,15.00
2017-09-29T21:36:17.315Z,14.90
2017-09-29T21:38:45.747Z,14.90
2017-09-29T21:41:14.151Z,14.90
2017-09-29T21:43:42.572Z,14.90
2017-09-29T21:46:11.767Z,14.90
2017-09-29T21:48:40.947Z,14.90
2017-09-29T21:51:10.129Z,14.90
2017-09-29T21:53:38.586Z,14.80
2017-09-29T21:56:06.995Z,14.90
2017-09-29T21:58:35.412Z,14.90
2017-09-29T22:01:03.870Z,14.90
2017-09-29T22:03:33.048Z,14.90
2017-09-29T22:06:01.465Z,14.90
2017-09-29T22:08:30.790Z,14.90
2017-09-29T22:10:59.203Z,14.90
2017-09-29T22:13:27.618Z,14.90
2017-09-29T22:15:56.317Z,14.90
2017-09-29T22:18:24.729Z,14.90
2017-09-29T22:20:53.146Z,14.90
2017-09-29T22:23:22.568Z,14.80
2017-09-29T22:25:50.992Z,14.80
2017-09-29T22:28:20.912Z,14.70
2017-09-29T22:30:49.360Z,14.80
2017-09-29T22:33:17.772Z,14.80
2017-09-29T22:35:46.182Z,14.80
2017-09-29T22:38:14.629Z,14.70
2017-09-29T22:40:43.050Z,14.70
2017-09-29T22:43:11.464Z,14.70
2017-09-29T22:45:39.905Z,14.60
2017-09-29T22:48:08.313Z,14.60
2017-09-29T22:50:36.718Z,14.60
2017-09-29T22:53:05.141Z,14.60
2017-09-29T22:55:33.559Z,14.60
2017-09-29T22:58:02.127Z,14.60
2017-09-29T23:00:30.566Z,14.60
2017-09-29T23:02:58.979Z,14.60
2017-09-29T23:05:27.391Z,14.60
2017-09-29T23:07:55.823Z,14.60
2017-09-29T23:10:24.243Z,14.60
2017-09-29T23:12:52.658Z,14.60
2017-09-29T23:15:21.867Z,14.50
2017-09-29T23:17:50.280Z,14.50
2017-09-29T23:20:18.690Z,14.50
2017-09-29T23:22:47.107Z,14.50
2017-09-29T23:25:15.522Z,14.50
2017-09-29T23:27:43.938Z,14.50
2017-09-29T23:30:13.134Z,14.40
2017-09-29T23:32:42.317Z,14.40
2017-09-29T23:35:10.722Z,14.40
2017-09-29T23:37:39.910Z,14.40
2017-09-29T23:40:09.100Z,14.30
2017-09-29T23:42:38.270Z,14.30
2017-09-29T23:45:06.706Z,14.30
2017-09-29T23:47:34.930Z,14.30
2017-09-29T23:50:03.490Z,14.20
2017-09-29T23:52:31.916Z,14.20
2017-09-29T23:55:01.104Z,14.20
2017-09-29T23:57:30.290Z,14.20
2017-09-29T23:59:58.718Z,14.10
